createdAt,value
2023-03-24T00:01:12.456Z,72.77
2023-03-24T00:03:40.427Z,73.07
2023-03-24T00:06:09.587Z,73.23
2023-03-24T00:08:38.096Z,72.78
2023-03-24T00:11:09.688Z,72.63
2023-03-24T00:13:38.547Z,72.21
2023-03-24T00:16:17.335Z,72.71
2023-03-24T00:18:50.654Z,73.06
2023-03-24T00:21:21.938Z,72.96
2023-03-24T00:23:51.202Z,73.04
2023-03-24T00:26:19.356Z,73.04
2023-03-24T00:28:53.056Z,72.94
2023-03-24T00:31:22.649Z,73.14
2023-03-24T00:33:54.153Z,73.49
2023-03-24T00:36:26.156Z,73.61
2023-03-24T00:38:56.507Z,73.53
2023-03-24T00:41:28.462Z,73.52
2023-03-24T00:44:00.795Z,73.79
2023-03-24T00:46:29.602Z,73.89
2023-03-24T00:49:06.250Z,74.35
2023-03-24T00:51:40.587Z,74.14
2023-03-24T00:54:12.868Z,74.44
2023-03-24T00:56:43.976Z,74.33
2023-03-24T00:59:14.307Z,74.70
2023-03-24T01:01:43.714Z,75.07
2023-03-24T01:04:12.290Z,75.00
2023-03-24T01:06:41.563Z,74.66
2023-03-24T01:09:10.929Z,74.36
2023-03-24T01:11:40.455Z,74.29
2023-03-24T01:14:09.942Z,74.62
2023-03-24T01:16:38.110Z,74.63
2023-03-24T01:19:07.080Z,74.63
2023-03-24T01:21:35.743Z,75.04
2023-03-24T01:24:05.522Z,74.98
2023-03-24T01:26:33.504Z,74.92
2023-03-24T01:29:01.491Z,74.75
2023-03-24T01:31:30.209Z,74.91
2023-03-24T01:33:58.265Z,74.77
2023-03-24T01:36:26.262Z,74.82
2023-03-24T01:38:54.112Z,75.11
2023-03-24T01:41:22.027Z,75.24
2023-03-24T01:43:49.912Z,75.21
2023-03-24T01:46:21.616Z,75.24
2023-03-24T01:49:11.586Z,75.38
2023-03-24T01:51:44.053Z,75.75
2023-03-24T01:54:14.916Z,75.76
2023-03-24T01:56:51.395Z,76.00
2023-03-24T01:59:22.482Z,76.20
2023-03-24T02:02:17.978Z,76.24
2023-03-24T02:04:54.490Z,76.10
2023-03-24T02:07:48.072Z,75.99
2023-03-24T02:10:18.453Z,75.82
2023-03-24T02:12:46.914Z,75.68
2023-03-24T02:15:17.925Z,75.56
2023-03-24T02:17:49.053Z,75.53
2023-03-24T02:20:19.828Z,75.87
2023-03-24T02:23:01.494Z,75.99
2023-03-24T02:25:51.808Z,76.19
2023-03-24T02:28:37.523Z,76.25
2023-03-24T02:31:24.651Z,76.62
2023-03-24T02:33:59.008Z,76.66
2023-03-24T02:36:33.649Z,76.86
2023-03-24T02:39:21.583Z,76.56
2023-03-24T02:41:58.634Z,76.42
2023-03-24T02:44:59.304Z,76.65
2023-03-24T02:47:37.414Z,76.67
2023-03-24T02:50:14.273Z,76.86
2023-03-24T02:52:49.445Z,76.60
2023-03-24T02:55:28.507Z,76.39
2023-03-24T02:58:03.981Z,76.52
2023-03-24T03:00:47.863Z,76.61
2023-03-24T03:03:44.175Z,76.58
2023-03-24T03:06:23.572Z,77.00
2023-03-24T03:08:52.490Z,77.25
2023-03-24T03:11:21.303Z,77.34
2023-03-24T03:13:55.003Z,77.23
2023-03-24T03:16:38.743Z,76.83
2023-03-24T03:19:14.693Z,76.79
2023-03-24T03:21:44.492Z,76.86
2023-03-24T03:24:27.581Z,76.96
2023-03-24T03:27:08.541Z,77.12
2023-03-24T03:29:39.920Z,76.98
2023-03-24T03:32:10.234Z,76.80
2023-03-24T03:34:46.805Z,76.68
2023-03-24T03:37:32.305Z,76.56
2023-03-24T03:40:13.450Z,76.37
2023-03-24T03:42:47.460Z,76.90
2023-03-24T03:45:18.569Z,76.95
2023-03-24T03:47:47.777Z,77.02
2023-03-24T03:50:16.802Z,76.72
2023-03-24T03:52:45.133Z,76.92
2023-03-24T03:55:13.271Z,76.28
2023-03-24T03:57:45.378Z,75.93
2023-03-24T04:00:31.347Z,75.97
2023-03-24T04:03:12.368Z,75.67
2023-03-24T04:05:54.767Z,74.86
2023-03-24T04:08:26.293Z,74.45
2023-03-24T04:11:06.892Z,74.54
2023-03-24T04:14:08.114Z,74.71
2023-03-24T04:17:00.790Z,74.55
2023-03-24T04:19:56.199Z,74.33
2023-03-24T04:22:47.674Z,73.61
2023-03-24T04:25:51.210Z,73.41
2023-03-24T04:28:27.479Z,72.84
2023-03-24T04:31:18.794Z,72.76
2023-03-24T04:34:05.671Z,72.65
2023-03-24T04:36:43.590Z,72.91
2023-03-24T04:39:37.072Z,72.95
2023-03-24T04:42:11.422Z,73.33
2023-03-24T04:44:42.054Z,73.46
2023-03-24T04:48:00.001Z,73.19
2023-03-24T04:50:43.733Z,73.48
2023-03-24T04:53:22.466Z,73.47
2023-03-24T04:55:51.793Z,73.58
2023-03-24T04:58:32.873Z,73.68
2023-03-24T05:01:04.758Z,73.88
2023-03-24T05:03:38.596Z,73.91
2023-03-24T05:06:09.377Z,73.94
2023-03-24T05:08:38.912Z,74.10
2023-03-24T05:11:08.084Z,73.85
2023-03-24T05:13:38.535Z,74.00
2023-03-24T05:16:07.392Z,73.86
2023-03-24T05:18:44.252Z,73.85
2023-03-24T05:21:15.456Z,73.80
2023-03-24T05:23:43.732Z,73.42
2023-03-24T05:26:13.396Z,72.87
2023-03-24T05:29:03.037Z,72.95
2023-03-24T05:31:31.906Z,72.60
2023-03-24T05:34:07.727Z,72.57
2023-03-24T05:36:47.036Z,72.40
2023-03-24T05:39:17.919Z,72.16
2023-03-24T05:41:53.804Z,71.55
2023-03-24T05:44:26.951Z,70.91
2023-03-24T05:47:05.310Z,70.28
2023-03-24T05:49:34.153Z,69.91
2023-03-24T05:52:03.244Z,69.56
2023-03-24T05:54:31.504Z,69.29
2023-03-24T05:57:14.425Z,68.29
2023-03-24T05:59:58.583Z,66.70
2023-03-24T06:02:54.100Z,66.69
2023-03-24T06:05:31.780Z,64.52
2023-03-24T06:08:02.572Z,65.08
2023-03-24T06:10:37.281Z,64.59
2023-03-24T06:13:10.772Z,63.63
2023-03-24T06:15:48.916Z,61.53
2023-03-24T06:18:37.990Z,61.30
2023-03-24T06:21:20.197Z,60.18
2023-03-24T06:23:56.704Z,57.70
2023-03-24T06:26:35.518Z,57.68
2023-03-24T06:29:07.621Z,56.47
2023-03-24T06:31:42.227Z,54.73
2023-03-24T06:34:10.810Z,54.15
2023-03-24T06:36:39.042Z,51.86
2023-03-24T06:39:08.675Z,49.85
2023-03-24T06:41:39.088Z,50.56
2023-03-24T06:44:10.366Z,48.41
2023-03-24T06:46:40.976Z,50.01
2023-03-24T06:49:11.403Z,49.94
2023-03-24T06:51:39.692Z,49.79
2023-03-24T06:54:09.406Z,48.15
2023-03-24T06:56:38.515Z,48.40
2023-03-24T06:59:09.457Z,48.45
2023-03-24T07:01:38.999Z,47.21
2023-03-24T07:04:37.386Z,47.50
2023-03-24T07:07:41.423Z,46.16
2023-03-24T07:10:24.596Z,47.18
2023-03-24T07:12:54.236Z,45.81
2023-03-24T07:15:23.626Z,46.09
2023-03-24T07:17:55.546Z,46.61
2023-03-24T07:20:46.892Z,45.71
2023-03-24T07:23:17.799Z,44.87
2023-03-24T07:26:00.275Z,44.22
2023-03-24T07:28:58.530Z,42.34
2023-03-24T07:31:54.887Z,42.80
2023-03-24T07:34:24.038Z,42.77
2023-03-24T07:36:55.069Z,42.54
2023-03-24T07:39:23.141Z,42.71
2023-03-24T07:42:13.092Z,43.32
2023-03-24T07:45:02.289Z,42.42
2023-03-24T07:47:31.993Z,43.28
2023-03-24T07:50:00.817Z,42.72
2023-03-24T07:52:30.865Z,42.57
2023-03-24T07:54:59.906Z,42.26
2023-03-24T07:57:51.632Z,41.92
2023-03-24T08:00:21.776Z,41.00
2023-03-24T08:03:15.860Z,41.50
2023-03-24T08:05:53.658Z,41.28
2023-03-24T08:08:47.972Z,40.70
2023-03-24T08:11:15.963Z,41.37
2023-03-24T08:13:48.191Z,41.01
2023-03-24T08:16:15.918Z,40.70
2023-03-24T08:18:45.473Z,41.15
2023-03-24T08:21:16.035Z,39.69
2023-03-24T08:23:45.092Z,40.99
2023-03-24T08:26:14.444Z,40.54
2023-03-24T08:28:49.882Z,39.67
2023-03-24T08:31:18.286Z,39.24
2023-03-24T08:33:47.526Z,39.47
2023-03-24T08:36:15.864Z,38.39
2023-03-24T08:38:43.806Z,38.04
2023-03-24T08:41:12.327Z,38.97
2023-03-24T08:43:40.982Z,38.73
2023-03-24T08:46:15.880Z,38.54
2023-03-24T08:48:44.525Z,38.29
2023-03-24T08:51:15.166Z,38.21
2023-03-24T08:53:46.157Z,37.52
2023-03-24T08:56:14.616Z,38.43
2023-03-24T08:58:43.930Z,37.52
2023-03-24T09:01:12.948Z,37.39
2023-03-24T09:03:48.236Z,37.72
2023-03-24T09:06:18.265Z,38.38
2023-03-24T09:08:46.373Z,38.87
2023-03-24T09:11:21.313Z,38.72
2023-03-24T09:13:51.426Z,38.32
2023-03-24T09:16:24.648Z,37.89
2023-03-24T09:19:06.059Z,38.59
2023-03-24T09:21:37.841Z,38.02
2023-03-24T09:24:12.202Z,38.20
2023-03-24T09:26:44.039Z,38.70
2023-03-24T09:29:14.553Z,37.94
2023-03-24T09:31:49.014Z,37.15
2023-03-24T09:34:17.716Z,37.64
2023-03-24T09:36:47.655Z,36.96
2023-03-24T09:39:20.206Z,36.48
2023-03-24T09:42:00.175Z,35.82
2023-03-24T09:44:46.131Z,36.87
2023-03-24T09:47:27.445Z,36.88
2023-03-24T09:50:12.357Z,35.62
2023-03-24T09:52:44.424Z,35.44
2023-03-24T09:55:22.361Z,36.10
2023-03-24T09:57:53.394Z,35.47
2023-03-24T10:00:28.990Z,37.60
2023-03-24T10:03:00.671Z,36.91
2023-03-24T10:05:47.796Z,38.27
2023-03-24T10:08:53.509Z,37.53
2023-03-24T10:11:38.930Z,39.01
2023-03-24T10:18:01.446Z,37.43
2023-03-24T10:20:46.950Z,38.71
2023-03-24T10:24:01.317Z,37.80
2023-03-24T10:26:50.554Z,36.74
2023-03-24T10:30:15.188Z,37.49
2023-03-24T10:32:44.233Z,37.07
2023-03-24T10:35:20.233Z,37.26
2023-03-24T10:37:58.007Z,36.78
2023-03-24T10:40:32.985Z,36.18
2023-03-24T10:43:07.010Z,36.34
2023-03-24T10:45:39.535Z,36.69
2023-03-24T10:48:10.703Z,35.97
2023-03-24T10:50:44.544Z,36.99
2023-03-24T10:53:22.858Z,36.66
2023-03-24T10:55:56.381Z,35.38
2023-03-24T10:58:37.977Z,36.70
2023-03-24T11:01:22.711Z,35.15
2023-03-24T11:04:04.054Z,35.27
2023-03-24T11:07:16.502Z,35.12
2023-03-24T11:10:12.533Z,36.24
2023-03-24T11:12:54.626Z,35.59
2023-03-24T11:15:24.230Z,35.67
2023-03-24T11:17:57.101Z,35.49
2023-03-24T11:20:36.620Z,36.32
2023-03-24T11:23:32.275Z,35.58
2023-03-24T11:26:09.648Z,35.58
2023-03-24T11:28:44.505Z,35.06
2023-03-24T11:31:19.469Z,35.82
2023-03-24T11:34:07.556Z,35.30
2023-03-24T11:36:47.865Z,35.37
2023-03-24T11:39:20.004Z,34.83
2023-03-24T11:42:12.628Z,34.18
2023-03-24T11:44:50.021Z,34.25
2023-03-24T11:47:38.967Z,34.74
2023-03-24T11:50:10.214Z,34.46
2023-03-24T11:52:46.375Z,35.47
2023-03-24T11:55:44.851Z,34.07
2023-03-24T11:58:21.993Z,33.74
2023-03-24T12:04:19.445Z,34.34
2023-03-24T12:07:20.556Z,35.40
2023-03-24T12:10:19.818Z,34.52
2023-03-24T12:12:52.968Z,35.08
2023-03-24T12:15:52.055Z,34.58
2023-03-24T12:18:41.929Z,32.98
2023-03-24T12:21:34.743Z,33.23
2023-03-24T12:24:21.123Z,32.84
2023-03-24T12:26:59.594Z,32.31
2023-03-24T12:29:38.985Z,32.33
2023-03-24T12:32:40.283Z,32.26
2023-03-24T12:35:38.969Z,31.74
2023-03-24T12:38:18.540Z,31.40
2023-03-24T12:40:55.796Z,32.82
2023-03-24T12:43:55.914Z,31.15
2023-03-24T12:46:46.732Z,31.17
2023-03-24T12:49:54.627Z,30.47
2023-03-24T12:52:41.138Z,30.35
2023-03-24T12:55:14.920Z,30.01
2023-03-24T12:57:50.256Z,29.44
2023-03-24T13:00:26.164Z,29.42
2023-03-24T13:03:24.084Z,30.24
2023-03-24T13:06:07.307Z,30.10
2023-03-24T13:08:40.188Z,31.78
2023-03-24T13:11:13.159Z,31.10
2023-03-24T13:13:47.578Z,30.84
2023-03-24T13:16:24.935Z,29.80
2023-03-24T13:18:57.745Z,30.53
2023-03-24T13:21:28.160Z,30.71
2023-03-24T13:23:59.122Z,30.61
2023-03-24T13:26:33.944Z,30.32
2023-03-24T13:29:24.103Z,30.36
2023-03-24T13:32:05.670Z,30.84
2023-03-24T13:34:35.987Z,30.23
2023-03-24T13:37:07.538Z,31.18
2023-03-24T13:39:38.083Z,30.46
2023-03-24T13:42:21.253Z,30.53
2023-03-24T13:44:49.079Z,30.66
2023-03-24T13:47:22.934Z,31.17
2023-03-24T13:50:06.849Z,31.18
2023-03-24T13:52:35.792Z,30.47
2023-03-24T13:55:14.632Z,31.16
2023-03-24T13:57:43.289Z,30.47
2023-03-24T14:00:22.669Z,29.76
2023-03-24T14:02:52.895Z,30.51
2023-03-24T14:05:26.523Z,30.51
2023-03-24T14:08:06.400Z,29.84
2023-03-24T14:10:43.709Z,29.31
2023-03-24T14:13:14.352Z,29.39
2023-03-24T14:15:53.406Z,28.88
2023-03-24T14:18:24.761Z,29.01
2023-03-24T14:21:13.729Z,29.93
2023-03-24T14:23:49.490Z,30.59
2023-03-24T14:26:20.179Z,31.63
2023-03-24T14:29:38.076Z,31.29
2023-03-24T14:34:37.850Z,31.40
2023-03-24T14:37:08.038Z,32.25
2023-03-24T14:39:46.504Z,32.76
2023-03-24T14:42:32.527Z,32.94
2023-03-24T14:45:05.061Z,32.32
2023-03-24T14:47:34.632Z,32.96
2023-03-24T14:50:30.380Z,32.91
2023-03-24T14:52:59.231Z,33.59
2023-03-24T14:55:27.228Z,33.00
2023-03-24T14:57:56.697Z,33.57
2023-03-24T15:00:51.729Z,34.08
2023-03-24T15:04:01.576Z,34.02
2023-03-24T15:06:44.201Z,33.82
2023-03-24T15:09:12.116Z,34.17
2023-03-24T15:11:40.696Z,33.88
2023-03-24T15:14:21.742Z,34.18
